createdAt,value
2022-08-08T00:01:08.354Z,99.90
2022-08-08T00:03:39.670Z,99.90
2022-08-08T00:06:10.019Z,99.90
2022-08-08T00:08:51.730Z,99.90
2022-08-08T00:11:46.641Z,99.90
2022-08-08T00:14:48.344Z,99.90
2022-08-08T00:17:35.263Z,99.90
2022-08-08T00:20:21.661Z,99.90
2022-08-08T00:22:54.631Z,99.90
2022-08-08T00:25:24.874Z,99.90
2022-08-08T00:28:08.064Z,99.90
2022-08-08T00:31:01.066Z,99.90
2022-08-08T00:34:18.723Z,99.90
2022-08-08T00:36:51.623Z,99.90
2022-08-08T00:41:07.245Z,99.90
2022-08-08T00:42:33.135Z,99.90
2022-08-08T00:45:21.412Z,99.90
2022-08-08T00:48:05.029Z,99.90
2022-08-08T00:50:53.665Z,99.90
2022-08-08T00:53:21.567Z,99.90
2022-08-08T00:55:54.698Z,99.90
2022-08-08T00:58:43.701Z,99.90
2022-08-08T01:01:38.246Z,99.90
2022-08-08T01:04:19.037Z,99.90
2022-08-08T01:07:06.040Z,99.90
2022-08-08T01:09:59.431Z,99.90
2022-08-08T01:12:47.062Z,99.90
2022-08-08T01:15:43.846Z,99.90
2022-08-08T01:18:50.617Z,99.90
2022-08-08T01:21:35.132Z,99.90
2022-08-08T01:24:21.318Z,99.90
2022-08-08T01:26:53.051Z,99.90
2022-08-08T01:29:59.208Z,99.90
2022-08-08T01:32:59.239Z,99.90
2022-08-08T01:35:30.258Z,99.90
2022-08-08T01:38:21.698Z,99.90
2022-08-08T01:41:11.493Z,99.90
2022-08-08T01:43:50.693Z,99.90
2022-08-08T01:46:47.442Z,99.90
2022-08-08T01:49:43.737Z,99.90
2022-08-08T01:53:01.192Z,99.90
2022-08-08T01:55:45.596Z,99.90
2022-08-08T01:58:11.690Z,99.90
2022-08-08T02:00:48.589Z,99.90
2022-08-08T02:03:54.964Z,99.90
2022-08-08T02:06:05.555Z,99.90
2022-08-08T02:09:00.267Z,99.90
2022-08-08T02:11:58.793Z,99.90
2022-08-08T02:14:49.804Z,99.90
2022-08-08T02:17:36.405Z,99.90
2022-08-08T02:21:01.932Z,99.90
2022-08-08T02:23:20.348Z,99.90
2022-08-08T02:26:00.887Z,99.90
2022-08-08T02:28:41.802Z,99.90
2022-08-08T02:31:43.660Z,99.90
2022-08-08T02:34:33.149Z,99.90
2022-08-08T02:37:52.014Z,99.90
2022-08-08T02:40:22.382Z,99.90
2022-08-08T02:44:42.403Z,99.90
2022-08-08T02:45:57.557Z,99.90
2022-08-08T02:48:48.080Z,99.90
2022-08-08T02:51:30.442Z,99.90
2022-08-08T02:54:13.656Z,99.90
2022-08-08T02:57:00.222Z,99.90
2022-08-08T02:59:57.746Z,99.90
2022-08-08T03:02:36.803Z,99.90
2022-08-08T03:05:12.564Z,99.90
2022-08-08T03:08:00.338Z,99.90
2022-08-08T03:10:51.284Z,99.90
2022-08-08T03:13:33.499Z,99.90
2022-08-08T03:16:34.353Z,99.90
2022-08-08T03:19:17.790Z,99.90
2022-08-08T03:21:58.660Z,99.90
2022-08-08T03:24:28.702Z,99.90
2022-08-08T03:27:02.994Z,99.90
2022-08-08T03:29:51.352Z,99.90
2022-08-08T03:32:41.829Z,99.90
2022-08-08T03:35:15.874Z,99.90
2022-08-08T03:38:54.880Z,99.90
2022-08-08T03:40:33.078Z,99.90
2022-08-08T03:43:16.876Z,99.90
2022-08-08T03:46:06.367Z,99.90
2022-08-08T03:49:26.516Z,99.90
2022-08-08T03:51:40.613Z,99.90
2022-08-08T03:54:15.699Z,99.90
2022-08-08T03:58:32.316Z,99.90
2022-08-08T04:00:01.378Z,99.90
2022-08-08T04:02:47.355Z,99.90
2022-08-08T04:05:28.005Z,99.90
2022-08-08T04:08:01.435Z,99.90
2022-08-08T04:10:31.914Z,99.90
2022-08-08T04:13:03.876Z,99.90
2022-08-08T04:15:55.200Z,99.90
2022-08-08T04:18:41.991Z,99.90
2022-08-08T04:21:22.876Z,99.90
2022-08-08T04:24:05.301Z,99.90
2022-08-08T04:26:57.546Z,99.90
2022-08-08T04:29:27.184Z,99.90
2022-08-08T04:31:58.395Z,99.90
2022-08-08T04:34:31.899Z,99.90
2022-08-08T04:37:01.024Z,99.90
2022-08-08T04:40:03.928Z,99.90
2022-08-08T04:42:19.604Z,99.90
2022-08-08T04:44:47.989Z,99.90
2022-08-08T04:47:16.730Z,99.90
2022-08-08T04:50:01.348Z,99.90
2022-08-08T04:52:35.934Z,99.90
2022-08-08T04:55:13.381Z,99.90
2022-08-08T04:57:42.462Z,99.90
2022-08-08T05:00:10.946Z,99.90
2022-08-08T05:02:42.236Z,99.90
2022-08-08T05:05:16.265Z,99.90
2022-08-08T05:07:48.849Z,99.90
2022-08-08T05:10:17.635Z,99.90
2022-08-08T05:13:00.211Z,99.90
2022-08-08T05:16:51.255Z,99.90
2022-08-08T05:18:20.185Z,99.90
2022-08-08T05:20:52.189Z,99.90
2022-08-08T05:23:21.538Z,99.90
2022-08-08T05:25:49.654Z,99.90
2022-08-08T05:28:48.463Z,99.90
2022-08-08T05:32:02.382Z,99.90
2022-08-08T05:33:56.730Z,99.90
2022-08-08T05:36:28.183Z,99.90
2022-08-08T05:38:59.100Z,99.90
2022-08-08T05:41:27.881Z,99.90
2022-08-08T05:44:11.920Z,99.90
2022-08-08T05:46:47.527Z,99.90
2022-08-08T05:49:19.387Z,99.90
2022-08-08T05:51:48.689Z,99.90
2022-08-08T05:54:27.312Z,99.90
2022-08-08T05:57:12.423Z,99.90
2022-08-08T05:59:53.634Z,99.90
2022-08-08T06:03:04.510Z,99.90
2022-08-08T06:05:36.463Z,99.90
2022-08-08T06:08:33.077Z,99.90
2022-08-08T06:11:04.672Z,99.90
2022-08-08T06:13:36.328Z,99.90
2022-08-08T06:16:16.812Z,99.90
2022-08-08T06:19:00.581Z,99.90
2022-08-08T06:21:33.141Z,99.90
2022-08-08T06:24:22.803Z,99.90
2022-08-08T06:27:03.351Z,99.90
2022-08-08T06:29:56.363Z,99.90
2022-08-08T06:32:31.274Z,99.90
2022-08-08T06:36:00.799Z,99.90
2022-08-08T06:38:01.633Z,99.90
2022-08-08T06:40:36.898Z,99.90
2022-08-08T06:43:14.980Z,99.90
2022-08-08T06:45:55.055Z,99.90
2022-08-08T06:48:26.762Z,99.90
2022-08-08T06:50:57.586Z,99.90
2022-08-08T06:53:39.730Z,99.90
2022-08-08T06:56:16.636Z,99.90
2022-08-08T06:58:44.864Z,99.90
2022-08-08T07:02:17.157Z,99.90
2022-08-08T07:04:37.034Z,99.90
2022-08-08T07:07:10.425Z,99.90
2022-08-08T07:09:56.278Z,99.90
2022-08-08T07:12:49.751Z,99.90
2022-08-08T07:16:04.982Z,99.90
2022-08-08T07:18:36.812Z,99.90
2022-08-08T07:21:19.251Z,99.90
2022-08-08T07:24:13.609Z,99.90
2022-08-08T07:26:52.949Z,99.90
2022-08-08T07:29:59.096Z,99.90
2022-08-08T07:32:17.231Z,99.90
2022-08-08T07:35:00.456Z,99.90
2022-08-08T07:37:55.770Z,99.90
2022-08-08T07:40:29.061Z,99.90
2022-08-08T07:43:01.186Z,99.90
2022-08-08T07:45:34.929Z,99.90
2022-08-08T07:48:16.504Z,99.90
2022-08-08T07:50:46.343Z,99.90
2022-08-08T07:54:01.209Z,99.90
2022-08-08T07:56:35.820Z,99.90
2022-08-08T07:59:10.669Z,99.90
2022-08-08T08:02:32.780Z,99.90
2022-08-08T08:04:32.627Z,99.90
2022-08-08T08:07:08.868Z,99.90
2022-08-08T08:09:39.242Z,99.90
2022-08-08T08:12:11.015Z,99.90
2022-08-08T08:15:04.365Z,99.90
2022-08-08T08:17:48.388Z,99.90
2022-08-08T08:20:30.155Z,99.90
2022-08-08T08:22:59.442Z,99.90
2022-08-08T08:25:43.134Z,99.90
2022-08-08T08:28:16.916Z,99.90
2022-08-08T08:30:50.074Z,99.90
2022-08-08T08:33:18.573Z,99.90
2022-08-08T08:36:20.110Z,99.90
2022-08-08T08:38:37.604Z,99.90
2022-08-08T08:41:17.077Z,99.90
2022-08-08T08:43:50.873Z,99.90
2022-08-08T08:46:26.005Z,99.90
2022-08-08T08:48:55.188Z,99.90
2022-08-08T08:51:25.951Z,99.90
2022-08-08T08:53:59.724Z,99.90
2022-08-08T08:56:32.351Z,99.90
2022-08-08T08:59:09.114Z,99.90
2022-08-08T09:01:50.395Z,99.90
2022-08-08T09:04:30.095Z,99.90
2022-08-08T09:07:02.261Z,99.90
2022-08-08T09:09:48.127Z,99.90
2022-08-08T09:12:26.111Z,99.90
2022-08-08T09:14:58.561Z,99.90
2022-08-08T09:17:42.055Z,99.90
2022-08-08T09:21:57.484Z,99.90
2022-08-08T09:23:17.817Z,99.90
2022-08-08T09:26:03.262Z,99.90
2022-08-08T09:28:38.922Z,99.90
2022-08-08T09:31:56.486Z,99.90
2022-08-08T09:34:34.673Z,99.90
2022-08-08T09:37:46.362Z,99.90
2022-08-08T09:40:01.359Z,99.90
2022-08-08T09:42:43.747Z,99.90
2022-08-08T09:46:01.047Z,99.90
2022-08-08T09:48:18.355Z,99.90
2022-08-08T09:50:55.958Z,99.90
2022-08-08T09:53:53.058Z,99.90
2022-08-08T09:56:21.740Z,99.90
2022-08-08T09:59:31.932Z,99.90
2022-08-08T10:01:58.312Z,99.90
2022-08-08T10:04:41.673Z,99.90
2022-08-08T10:07:16.348Z,99.90
2022-08-08T10:09:59.666Z,99.90
2022-08-08T10:12:38.853Z,99.90
2022-08-08T10:15:20.843Z,99.90
2022-08-08T10:18:03.984Z,99.90
2022-08-08T10:21:00.687Z,99.90
2022-08-08T10:23:45.838Z,99.90
2022-08-08T10:26:30.711Z,99.90
2022-08-08T10:29:20.835Z,99.90
2022-08-08T10:32:07.128Z,99.90
2022-08-08T10:34:38.648Z,99.90
2022-08-08T10:37:06.954Z,99.90
2022-08-08T10:39:54.774Z,99.90
2022-08-08T10:42:27.982Z,99.90
2022-08-08T10:45:00.694Z,99.90
2022-08-08T10:47:42.919Z,99.90
2022-08-08T10:50:15.670Z,99.90
2022-08-08T10:52:44.434Z,99.90
2022-08-08T10:55:15.620Z,99.90
2022-08-08T10:58:05.892Z,99.00
2022-08-08T11:00:48.278Z,99.00
2022-08-08T11:03:52.354Z,98.80
2022-08-08T11:06:12.723Z,98.90
2022-08-08T11:08:50.039Z,97.40
2022-08-08T11:11:31.930Z,97.30
2022-08-08T11:14:12.340Z,96.00
2022-08-08T11:16:46.894Z,95.80
2022-08-08T11:19:15.494Z,96.10
2022-08-08T11:21:55.213Z,96.00
2022-08-08T11:24:26.276Z,96.60
2022-08-08T11:26:56.621Z,97.10
2022-08-08T11:29:41.843Z,97.60
2022-08-08T11:32:15.680Z,97.90
2022-08-08T11:35:08.758Z,97.10
2022-08-08T11:38:35.276Z,97.10
2022-08-08T11:40:25.801Z,97.30
2022-08-08T11:42:54.707Z,96.80
2022-08-08T11:45:23.067Z,96.90
2022-08-08T11:48:04.787Z,96.20
2022-08-08T11:50:33.805Z,96.00
2022-08-08T11:53:06.138Z,96.10
2022-08-08T11:55:36.638Z,95.40
2022-08-08T11:58:15.383Z,93.90
2022-08-08T12:00:53.774Z,94.00
2022-08-08T12:03:21.499Z,93.20
2022-08-08T12:05:49.299Z,93.30
2022-08-08T12:08:17.984Z,93.40
2022-08-08T12:10:49.562Z,93.30
2022-08-08T12:13:38.405Z,91.00
2022-08-08T12:16:12.928Z,90.80
2022-08-08T12:18:46.960Z,90.10
2022-08-08T12:21:20.477Z,90.30
2022-08-08T12:24:03.966Z,88.70
2022-08-08T12:26:41.675Z,87.60
2022-08-08T12:29:25.886Z,85.80
2022-08-08T12:32:17.295Z,84.70
2022-08-08T12:35:01.222Z,83.20
2022-08-08T12:37:43.502Z,77.20
2022-08-08T12:40:22.579Z,77.30
2022-08-08T12:42:51.579Z,76.70
2022-08-08T12:45:58.873Z,77.20
2022-08-08T12:48:37.694Z,77.30
2022-08-08T12:51:10.810Z,78.10
2022-08-08T12:53:44.816Z,80.00
2022-08-08T12:56:19.448Z,77.30
2022-08-08T12:58:52.174Z,77.80
2022-08-08T13:01:35.143Z,76.10
2022-08-08T13:04:18.605Z,76.50
2022-08-08T13:07:03.083Z,72.40
2022-08-08T13:09:33.593Z,68.40
2022-08-08T13:12:38.652Z,68.10
2022-08-08T13:15:09.350Z,68.20
2022-08-08T13:18:08.405Z,64.70
2022-08-08T13:20:27.373Z,64.50
2022-08-08T13:23:26.991Z,65.00
2022-08-08T13:25:44.184Z,65.80
2022-08-08T13:28:27.823Z,64.80
2022-08-08T13:30:57.047Z,63.20
2022-08-08T13:33:24.788Z,64.40
2022-08-08T13:35:55.442Z,63.80
2022-08-08T13:38:25.084Z,64.80
2022-08-08T13:40:56.228Z,64.90
2022-08-08T13:43:23.693Z,64.60
2022-08-08T13:45:53.890Z,63.60
2022-08-08T13:48:25.968Z,63.20
2022-08-08T13:50:57.549Z,63.00
2022-08-08T13:53:27.321Z,63.00
2022-08-08T13:55:58.791Z,62.20
2022-08-08T13:58:29.403Z,61.20
2022-08-08T14:00:57.285Z,60.10
2022-08-08T14:03:52.961Z,60.70
2022-08-08T14:06:32.610Z,60.00
2022-08-08T14:09:25.212Z,60.00
2022-08-08T14:11:49.190Z,60.10
2022-08-08T14:14:21.147Z,60.10
2022-08-08T14:16:54.029Z,58.30
2022-08-08T14:19:57.739Z,58.60
2022-08-08T14:22:24.330Z,58.70
2022-08-08T14:24:55.795Z,58.80
2022-08-08T14:27:27.269Z,59.10
2022-08-08T14:29:56.297Z,60.10
2022-08-08T14:32:30.062Z,60.60
2022-08-08T14:35:07.841Z,60.30
2022-08-08T14:37:42.768Z,61.40
2022-08-08T14:40:26.453Z,60.90
2022-08-08T14:42:59.556Z,60.70
2022-08-08T14:45:46.877Z,59.50
2022-08-08T14:48:27.498Z,59.60
2022-08-08T14:51:06.523Z,59.90
2022-08-08T14:53:37.140Z,58.60
2022-08-08T14:56:05.179Z,58.70
2022-08-08T14:58:33.332Z,58.80
2022-08-08T15:01:01.465Z,58.60
2022-08-08T15:03:38.657Z,58.00
2022-08-08T15:06:20.931Z,57.70
2022-08-08T15:08:54.438Z,56.80
2022-08-08T15:11:23.070Z,57.30
2022-08-08T15:14:02.053Z,57.80
2022-08-08T15:16:34.263Z,57.80
2022-08-08T15:19:03.378Z,57.50
2022-08-08T15:21:30.937Z,57.50
2022-08-08T15:23:58.554Z,56.40
2022-08-08T15:26:28.754Z,56.20
2022-08-08T15:28:57.213Z,55.80
2022-08-08T15:31:55.597Z,56.60
2022-08-08T15:34:29.226Z,56.30
2022-08-08T15:37:02.402Z,55.50
2022-08-08T15:39:38.184Z,55.90
2022-08-08T15:42:13.216Z,56.20
2022-08-08T15:44:45.879Z,56.10
2022-08-08T15:47:15.614Z,55.20
2022-08-08T15:49:48.486Z,55.50
2022-08-08T15:52:17.319Z,56.40
2022-08-08T15:54:51.437Z,57.00
2022-08-08T15:57:20.668Z,57.60
2022-08-08T16:00:06.473Z,56.70
2022-08-08T16:02:49.367Z,56.70
2022-08-08T16:05:23.819Z,57.20
2022-08-08T16:07:53.935Z,56.80
2022-08-08T16:13:09.809Z,56.00
2022-08-08T16:13:32.164Z,55.90
2022-08-08T16:16:13.151Z,56.60
2022-08-08T16:18:53.301Z,56.90
2022-08-08T16:21:31.639Z,57.50
2022-08-08T16:24:03.538Z,57.50
2022-08-08T16:26:33.743Z,56.40
2022-08-08T16:29:07.112Z,56.30
2022-08-08T16:31:40.208Z,56.80
2022-08-08T16:34:11.256Z,58.60
2022-08-08T16:36:40.724Z,58.70
2022-08-08T16:39:12.929Z,58.80
2022-08-08T16:41:50.969Z,59.10
2022-08-08T16:44:28.168Z,59.20
2022-08-08T16:47:16.228Z,59.50
2022-08-08T16:49:43.799Z,59.50
2022-08-08T16:55:04.271Z,60.00
2022-08-08T16:55:27.964Z,60.60
2022-08-08T16:58:15.518Z,60.70
2022-08-08T17:00:34.879Z,61.60
2022-08-08T17:03:04.037Z,61.60
2022-08-08T17:05:42.285Z,62.20
2022-08-08T17:08:13.955Z,62.30
2022-08-08T17:10:58.205Z,62.20
2022-08-08T17:13:49.929Z,62.70
2022-08-08T17:16:17.112Z,63.10
2022-08-08T17:18:45.580Z,63.90
2022-08-08T17:21:13.677Z,63.90
2022-08-08T17:24:01.766Z,64.20
2022-08-08T17:26:29.797Z,64.20
2022-08-08T17:28:58.507Z,65.20
2022-08-08T17:31:44.768Z,65.00
2022-08-08T17:34:48.096Z,65.00
2022-08-08T17:37:09.107Z,65.10
2022-08-08T17:40:04.867Z,65.50
2022-08-08T17:42:24.841Z,65.90
2022-08-08T17:44:53.093Z,66.60
2022-08-08T17:47:23.877Z,67.00
2022-08-08T17:50:01.300Z,67.50
2022-08-08T17:52:34.328Z,67.70
2022-08-08T17:56:03.870Z,68.00
2022-08-08T17:57:52.013Z,68.60
2022-08-08T18:00:26.061Z,69.30
2022-08-08T18:03:08.452Z,69.80
2022-08-08T18:05:49.103Z,69.90
2022-08-08T18:08:40.870Z,70.90
2022-08-08T18:11:08.394Z,70.70
2022-08-08T18:13:41.858Z,70.80
2022-08-08T18:16:11.062Z,71.20
2022-08-08T18:18:42.697Z,71.50
2022-08-08T18:21:24.921Z,71.80
2022-08-08T18:24:01.796Z,72.00
2022-08-08T18:26:29.413Z,72.10
2022-08-08T18:28:57.736Z,72.80
2022-08-08T18:31:27.743Z,73.40
2022-08-08T18:34:11.762Z,73.70
2022-08-08T18:36:44.486Z,73.90
2022-08-08T18:39:16.389Z,74.30
2022-08-08T18:41:59.668Z,74.30
2022-08-08T18:44:34.796Z,74.50
2022-08-08T18:47:04.142Z,75.20
2022-08-08T18:49:54.704Z,75.30
2022-08-08T18:52:22.531Z,76.00
2022-08-08T18:54:59.351Z,76.40
2022-08-08T18:57:31.915Z,76.00
2022-08-08T19:00:08.447Z,76.70
2022-08-08T19:02:48.611Z,76.80
2022-08-08T19:05:30.179Z,77.10
2022-08-08T19:08:00.005Z,77.50
2022-08-08T19:10:27.729Z,77.70
2022-08-08T19:12:55.138Z,78.00
2022-08-08T19:15:26.119Z,78.40
2022-08-08T19:18:31.757Z,78.70
2022-08-08T19:20:50.836Z,78.90
2022-08-08T19:23:21.518Z,79.40
2022-08-08T19:26:01.702Z,79.70
2022-08-08T19:28:36.855Z,79.70
2022-08-08T19:31:09.263Z,80.10
2022-08-08T19:33:39.720Z,80.20
2022-08-08T19:36:27.534Z,80.60
2022-08-08T19:38:56.463Z,80.90
2022-08-08T19:41:31.607Z,81.20
2022-08-08T19:44:02.916Z,81.70
2022-08-08T19:46:33.519Z,82.60
2022-08-08T19:49:03.115Z,83.00
2022-08-08T19:51:34.819Z,83.60
2022-08-08T19:54:07.132Z,83.80
2022-08-08T19:56:40.634Z,84.00
2022-08-08T19:59:09.639Z,84.20
2022-08-08T20:02:01.843Z,84.40
2022-08-08T20:04:25.381Z,84.70
2022-08-08T20:06:53.810Z,85.50
2022-08-08T20:09:25.185Z,85.40
2022-08-08T20:11:57.405Z,85.70
2022-08-08T20:14:33.607Z,86.00
2022-08-08T20:17:04.052Z,85.90
2022-08-08T20:19:34.451Z,86.40
2022-08-08T20:22:20.585Z,86.30
2022-08-08T20:24:53.764Z,86.50
2022-08-08T20:27:21.379Z,86.90
2022-08-08T20:29:55.829Z,87.10
2022-08-08T20:32:29.769Z,87.20
2022-08-08T20:35:01.493Z,87.40
2022-08-08T20:37:47.238Z,87.40
2022-08-08T20:40:17.726Z,87.70
2022-08-08T20:43:01.297Z,88.10
2022-08-08T20:45:54.956Z,88.50
2022-08-08T20:48:26.040Z,88.60
2022-08-08T20:50:55.915Z,88.90
2022-08-08T20:53:59.172Z,89.20
2022-08-08T20:56:11.693Z,89.30
2022-08-08T20:58:47.670Z,89.70
2022-08-08T21:01:20.024Z,89.90
2022-08-08T21:03:55.544Z,90.00
2022-08-08T21:06:52.626Z,90.20
2022-08-08T21:09:16.099Z,90.40
2022-08-08T21:11:50.527Z,90.50
2022-08-08T21:14:34.300Z,90.70
2022-08-08T21:17:06.274Z,90.90
2022-08-08T21:19:45.248Z,91.20
2022-08-08T21:22:14.449Z,91.40
2022-08-08T21:24:53.301Z,91.60
2022-08-08T21:28:05.301Z,91.80
2022-08-08T21:30:18.805Z,92.00
2022-08-08T21:32:51.561Z,92.10
2022-08-08T21:36:16.379Z,92.30
2022-08-08T21:38:11.959Z,92.60
2022-08-08T21:40:54.719Z,92.60
2022-08-08T21:43:23.000Z,92.70
2022-08-08T21:48:01.470Z,92.70
2022-08-08T21:48:41.765Z,92.80
2022-08-08T21:51:13.284Z,92.90
2022-08-08T21:54:31.742Z,93.10
2022-08-08T21:56:36.815Z,93.10
2022-08-08T21:59:09.970Z,93.30
2022-08-08T22:01:39.134Z,93.40
2022-08-08T22:04:12.306Z,93.50
2022-08-08T22:06:40.672Z,93.60
2022-08-08T22:09:09.758Z,93.70
2022-08-08T22:11:59.588Z,93.80
2022-08-08T22:14:26.790Z,93.90
2022-08-08T22:16:56.480Z,94.10
2022-08-08T22:19:30.721Z,94.20
2022-08-08T22:22:18.462Z,94.40
2022-08-08T22:24:45.989Z,94.60
2022-08-08T22:27:14.909Z,94.80
2022-08-08T22:30:01.585Z,95.10
2022-08-08T22:32:29.997Z,95.20
2022-08-08T22:34:58.911Z,95.50
2022-08-08T22:37:49.891Z,95.80
2022-08-08T22:40:16.750Z,96.10
2022-08-08T22:42:47.237Z,96.40
2022-08-08T22:45:15.797Z,96.50
2022-08-08T22:47:47.248Z,96.80
2022-08-08T22:50:25.414Z,96.90
2022-08-08T22:54:33.026Z,97.40
2022-08-08T22:55:58.168Z,97.90
2022-08-08T22:58:34.157Z,98.30
2022-08-08T23:02:02.130Z,98.50
2022-08-08T23:03:55.526Z,98.90
2022-08-08T23:06:24.818Z,99.30
2022-08-08T23:08:55.988Z,99.50
2022-08-08T23:11:30.937Z,99.80
2022-08-08T23:14:18.535Z,99.90
2022-08-08T23:16:54.892Z,99.90
2022-08-08T23:19:27.201Z,99.90
2022-08-08T23:21:54.662Z,99.90
2022-08-08T23:24:23.547Z,99.90
2022-08-08T23:26:53.512Z,99.90
2022-08-08T23:29:25.335Z,99.90
2022-08-08T23:31:53.665Z,99.90
2022-08-08T23:34:21.382Z,99.90
2022-08-08T23:36:57.759Z,99.90
2022-08-08T23:39:26.545Z,99.90
2022-08-08T23:42:00.932Z,99.90
2022-08-08T23:44:29.242Z,99.90
2022-08-08T23:49:00.799Z,99.90
2022-08-08T23:49:49.610Z,99.90
2022-08-08T23:52:31.117Z,99.90
2022-08-08T23:55:07.708Z,99.90
2022-08-08T23:57:52.496Z,99.90
